Columbia Metropolitan Airport Columbia US
ICAO: KCAE
IATA: CAE
Category: Large
Scheduled Services: Yes

Elevation: 236 ft
TransAlt. 18000 ft.

Airport Communications:
APP/DEP:124.15
ATIS:120.15
CLNC DEL:119.75
GND:121.9
ANDERSON RDO:122.65
TWR:119.5
UNICOM:122.95

KCAE Zoom In..

If you have problems with the map follow the link
https://www.worldairports.se/pages/airport.php?
ICAO=KCAE

Runways:

(A) RW 05 length 8001 ft width 150 ft
ILS 108.95 / hdg 50

(B) RW 11 length 8601 ft width 150 ft
ILS 110.30 / hdg 110

(C) RW 23 length 8001 ft width 150 ft
---- / hdg 230

(D) RW 29 length 8601 ft width 150 ft
ILS 108.30 / hdg 290

Location; KCAE
Day. 18 / Time. 05.56 Zulu
* Altimeter: 30.24
* Temperature: 18° c. 64.4°f.
* Wind from: VRB° Speed 03 kn.
Dewpoint: 10° c.
Visibility: 10 Statute Miles.
Clouds: Broken 15000 ft.

KCAE 180556Z VRB03KT 10SM BKN150 18/10 A3024 RMK AO2 SLP237 T01830100 10244 20183 51012


Wind From VRB°
Speed 03 kn.

 
 
jpsmedia.com for Web Design worldairports.se 2018   terms of use